Time;durP1;ratioP1;P1;durP2;ratioP2;P2;SDS_P1;SDS_P2;PMS_P1;PMS_P2;Temp;Humidity;BMP_temperature;BMP_pressure;BME280_temperature;BME280_humidity;BME280_pressure;Samples;Min_cycle;Max_cycle;Signal;HPM_P1;HPM_P2
2023/07/23 00:01:44;;;;;;;20.25;11.25;;;15.70;99.90;;;;;;5013410;28;20053;-68
2023/07/23 00:04:10;;;;;;;17.70;11.40;;;15.70;99.90;;;;;;5013823;28;20112;-69
2023/07/23 00:06:37;;;;;;;16.05;10.18;;;15.70;99.90;;;;;;5013714;28;20022;-68
2023/07/23 00:09:03;;;;;;;18.50;11.75;;;15.80;99.90;;;;;;5013627;28;20495;-68
2023/07/23 00:11:29;;;;;;;18.27;12.05;;;15.70;99.90;;;;;;5013397;28;20029;-68
2023/07/23 00:13:55;;;;;;;18.92;11.25;;;15.70;99.90;;;;;;5013415;28;20117;-68
2023/07/23 00:16:21;;;;;;;16.67;11.18;;;15.70;99.90;;;;;;5013356;28;20022;-68
2023/07/23 00:18:47;;;;;;;18.58;10.18;;;15.60;99.90;;;;;;5013628;28;20490;-68
2023/07/23 00:21:12;;;;;;;16.23;10.63;;;15.60;99.90;;;;;;5013588;28;20084;-68
2023/07/23 00:23:38;;;;;;;14.88;11.05;;;15.60;99.90;;;;;;5013634;28;20096;-68
2023/07/23 00:26:03;;;;;;;17.65;9.98;;;15.60;99.90;;;;;;5013497;28;20034;-68
2023/07/23 00:28:29;;;;;;;14.68;10.40;;;15.50;99.90;;;;;;5013469;28;20128;-68
2023/07/23 00:30:55;;;;;;;15.68;9.75;;;15.50;99.90;;;;;;5013159;28;20092;-68
2023/07/23 00:33:23;;;;;;;19.92;10.52;;;15.50;99.90;;;;;;5013467;28;20026;-68
2023/07/23 00:35:49;;;;;;;15.23;9.70;;;15.50;99.90;;;;;;5013541;28;20025;-68
2023/07/23 00:38:14;;;;;;;16.15;10.18;;;15.50;99.90;;;;;;5013476;28;20030;-68
2023/07/23 00:40:40;;;;;;;16.25;10.02;;;15.50;99.90;;;;;;5013042;28;20038;-69
2023/07/23 00:43:06;;;;;;;18.42;10.20;;;15.50;99.90;;;;;;5013299;28;20117;-68
2023/07/23 00:45:32;;;;;;;14.75;9.40;;;15.50;99.90;;;;;;5013267;28;20030;-68
2023/07/23 00:47:59;;;;;;;15.60;9.80;;;15.60;99.90;;;;;;5012934;28;20048;-68
2023/07/23 00:50:29;;;;;;;15.27;10.38;;;15.50;99.90;;;;;;5013070;28;20034;-68
2023/07/23 00:52:55;;;;;;;11.68;9.15;;;15.50;99.90;;;;;;5013312;28;20107;-68
2023/07/23 00:55:21;;;;;;;14.55;9.43;;;15.50;99.90;;;;;;5013080;28;20018;-68
2023/07/23 00:57:46;;;;;;;14.02;8.95;;;15.50;99.90;;;;;;5013332;28;20502;-68
2023/07/23 01:00:12;;;;;;;14.15;9.93;;;15.50;99.90;;;;;;5012778;28;20030;-68
2023/07/23 01:02:38;;;;;;;15.30;9.13;;;15.50;99.90;;;;;;5013447;28;20030;-69
2023/07/23 01:05:05;;;;;;;13.07;9.43;;;15.50;99.90;;;;;;5016419;28;20034;-68
2023/07/23 01:07:33;;;;;;;18.15;9.27;;;15.50;99.90;;;;;;5016291;28;20121;-68
2023/07/23 01:10:02;;;;;;;14.75;8.30;;;15.50;99.90;;;;;;5016673;28;20448;-68
2023/07/23 01:12:28;;;;;;;12.18;7.70;;;15.50;99.90;;;;;;5016219;28;20432;-68
2023/07/23 01:14:54;;;;;;;14.02;8.10;;;15.50;99.90;;;;;;5016682;28;20033;-68
2023/07/23 01:17:19;;;;;;;13.93;8.75;;;15.50;99.90;;;;;;5016662;28;20030;-68
2023/07/23 01:19:46;;;;;;;14.48;8.15;;;15.40;99.90;;;;;;5016505;28;20129;-69
2023/07/23 01:22:11;;;;;;;13.23;8.10;;;15.40;99.90;;;;;;5016639;28;20025;-68
2023/07/23 01:24:37;;;;;;;13.13;8.40;;;15.40;99.90;;;;;;5016347;28;20164;-68
2023/07/23 01:27:03;;;;;;;14.95;8.38;;;15.40;99.90;;;;;;5016056;28;20026;-68
2023/07/23 01:29:29;;;;;;;12.13;7.75;;;15.40;99.90;;;;;;5016278;28;20107;-68
2023/07/23 01:31:54;;;;;;;12.05;7.85;;;15.40;99.90;;;;;;5016046;28;20113;-68
2023/07/23 01:34:21;;;;;;;11.88;8.48;;;15.40;99.90;;;;;;5015962;28;20030;-68
2023/07/23 01:36:49;;;;;;;11.95;7.88;;;15.40;99.90;;;;;;5016380;28;20498;-68
2023/07/23 01:39:15;;;;;;;15.38;8.20;;;15.50;99.90;;;;;;5016256;28;20044;-68
2023/07/23 01:41:40;;;;;;;12.70;7.70;;;15.40;99.90;;;;;;5016364;28;20034;-68
2023/07/23 01:44:06;;;;;;;15.57;7.95;;;15.40;99.90;;;;;;5016137;28;20018;-68
2023/07/23 01:46:31;;;;;;;13.27;7.20;;;15.40;99.90;;;;;;5015526;28;20029;-68
2023/07/23 01:48:57;;;;;;;12.88;8.32;;;15.40;99.90;;;;;;5015701;28;20046;-68
2023/07/23 01:51:22;;;;;;;14.50;7.72;;;15.40;99.90;;;;;;5015801;28;20034;-68
2023/07/23 01:53:48;;;;;;;11.60;7.53;;;15.40;99.90;;;;;;5015930;28;20032;-68
2023/07/23 01:56:13;;;;;;;15.85;9.07;;;15.40;99.90;;;;;;5015969;28;20032;-68
2023/07/23 01:58:39;;;;;;;11.50;8.00;;;15.40;99.90;;;;;;5015871;28;20026;-68
2023/07/23 02:01:05;;;;;;;15.25;8.02;;;15.40;99.90;;;;;;5015836;28;20026;-68
2023/07/23 02:03:31;;;;;;;12.35;7.95;;;15.40;99.90;;;;;;5015848;28;20563;-68
2023/07/23 02:05:58;;;;;;;18.33;8.57;;;15.40;99.90;;;;;;5015771;28;20038;-68
2023/07/23 02:08:23;;;;;;;15.73;8.25;;;15.40;99.90;;;;;;5015261;28;20033;-68
2023/07/23 02:10:49;;;;;;;13.43;7.68;;;15.30;99.90;;;;;;5015428;28;20034;-68
2023/07/23 02:13:14;;;;;;;14.88;8.65;;;15.40;99.90;;;;;;5015502;28;20103;-68
2023/07/23 02:15:41;;;;;;;16.92;8.52;;;15.40;99.90;;;;;;5015207;28;20037;-68
2023/07/23 02:18:06;;;;;;;12.88;8.27;;;15.40;99.90;;;;;;5015494;28;20484;-68
2023/07/23 02:20:32;;;;;;;13.48;8.57;;;15.30;99.90;;;;;;5015077;28;20121;-68
2023/07/23 02:22:57;;;;;;;14.65;9.15;;;15.40;99.90;;;;;;5015437;28;20116;-68
2023/07/23 02:25:23;;;;;;;14.95;8.30;;;15.40;99.90;;;;;;5015725;28;20034;-68
2023/07/23 02:27:48;;;;;;;16.80;8.45;;;15.30;99.90;;;;;;5015359;28;20520;-68
2023/07/23 02:30:14;;;;;;;14.68;8.13;;;15.30;99.90;;;;;;5015139;28;20029;-68
2023/07/23 02:32:39;;;;;;;16.52;8.55;;;15.40;99.90;;;;;;5015192;28;20036;-68
2023/07/23 02:35:05;;;;;;;16.67;9.00;;;15.30;99.90;;;;;;5015195;28;20014;-68
2023/07/23 02:37:31;;;;;;;13.60;8.15;;;15.40;99.90;;;;;;5015150;28;20062;-68
2023/07/23 02:39:56;;;;;;;13.48;8.00;;;15.40;99.90;;;;;;5015059;28;20516;-68
2023/07/23 02:42:22;;;;;;;13.55;8.73;;;15.40;99.90;;;;;;5014720;28;20502;-68
2023/07/23 02:44:48;;;;;;;13.32;8.68;;;15.30;99.90;;;;;;5014903;28;20067;-68
2023/07/23 02:47:13;;;;;;;13.98;8.70;;;15.40;99.90;;;;;;5015066;28;20030;-68
2023/07/23 02:49:39;;;;;;;14.50;9.20;;;15.40;99.90;;;;;;5014476;28;20046;-68
2023/07/23 02:52:05;;;;;;;14.98;8.18;;;15.40;99.90;;;;;;5014394;28;20494;-68
2023/07/23 02:54:30;;;;;;;11.40;8.50;;;15.40;99.90;;;;;;5014347;28;20064;-69
2023/07/23 02:56:56;;;;;;;14.32;8.32;;;15.40;99.90;;;;;;5015037;28;20029;-69
2023/07/23 02:59:21;;;;;;;13.02;8.55;;;15.40;99.90;;;;;;5014352;28;20048;-68
2023/07/23 03:01:47;;;;;;;15.77;8.65;;;15.40;99.90;;;;;;5014320;28;20108;-68
2023/07/23 03:04:13;;;;;;;18.08;8.35;;;15.40;99.90;;;;;;5014756;28;20029;-68
2023/07/23 03:06:39;;;;;;;15.82;8.18;;;15.40;99.90;;;;;;5014580;28;20031;-68
2023/07/23 03:09:05;;;;;;;13.57;8.35;;;15.40;99.90;;;;;;5014525;28;20037;-68
2023/07/23 03:11:32;;;;;;;12.43;8.13;;;15.30;99.90;;;;;;5014292;28;20033;-68
2023/07/23 03:13:57;;;;;;;17.25;8.90;;;15.30;99.90;;;;;;5014122;28;20360;-68
2023/07/23 03:16:23;;;;;;;14.90;8.43;;;15.40;99.90;;;;;;5014498;28;20022;-68
2023/07/23 03:18:48;;;;;;;12.40;7.72;;;15.40;99.90;;;;;;5014339;28;20174;-68
2023/07/23 03:21:14;;;;;;;14.68;8.43;;;15.40;99.90;;;;;;5014438;28;20069;-68
2023/07/23 03:23:40;;;;;;;12.48;7.32;;;15.40;99.90;;;;;;5014287;28;20059;-68
2023/07/23 03:26:06;;;;;;;13.50;8.25;;;15.40;99.90;;;;;;5013989;28;20025;-68
2023/07/23 03:28:31;;;;;;;9.48;7.22;;;15.40;99.90;;;;;;5013550;28;20029;-68
2023/07/23 03:30:57;;;;;;;14.23;8.45;;;15.30;99.90;;;;;;5013965;28;20072;-68
2023/07/23 03:33:23;;;;;;;13.18;8.50;;;15.10;99.90;;;;;;5014171;28;20472;-68
2023/07/23 03:35:48;;;;;;;15.27;7.90;;;15.30;99.90;;;;;;5014212;28;20110;-68
2023/07/23 03:38:14;;;;;;;12.23;7.93;;;15.20;99.90;;;;;;5014195;28;20034;-68
2023/07/23 03:40:40;;;;;;;12.60;8.10;;;15.30;99.90;;;;;;5014043;28;20029;-68
2023/07/23 03:43:05;;;;;;;12.05;7.72;;;15.10;99.90;;;;;;5014060;28;20037;-68
2023/07/23 03:45:31;;;;;;;13.15;8.07;;;15.10;99.90;;;;;;5013938;28;20427;-68
2023/07/23 03:47:56;;;;;;;11.52;8.18;;;15.20;99.90;;;;;;5013248;28;20081;-68
2023/07/23 03:50:22;;;;;;;18.42;9.00;;;15.30;99.90;;;;;;5013691;28;20030;-68
2023/07/23 03:52:48;;;;;;;11.18;7.45;;;14.90;99.90;;;;;;5014019;28;20436;-68
2023/07/23 03:55:14;;;;;;;13.50;8.20;;;15.00;99.90;;;;;;5013979;28;20026;-68
2023/07/23 03:57:39;;;;;;;13.68;7.80;;;15.40;99.90;;;;;;5013859;28;20028;-68
2023/07/23 04:00:06;;;;;;;12.88;7.70;;;15.30;99.90;;;;;;5013342;28;20068;-68
2023/07/23 04:02:31;;;;;;;14.25;8.18;;;15.40;99.90;;;;;;5013465;28;20022;-68
2023/07/23 04:04:57;;;;;;;15.55;8.55;;;15.20;99.90;;;;;;5013781;28;20387;-68
2023/07/23 04:07:22;;;;;;;14.50;8.38;;;15.40;99.90;;;;;;5013635;28;20026;-68
2023/07/23 04:09:48;;;;;;;10.40;7.57;;;15.70;99.90;;;;;;5013686;28;20084;-68
2023/07/23 04:12:13;;;;;;;12.15;7.93;;;15.60;99.90;;;;;;5013694;28;20022;-68
2023/07/23 04:14:46;;;;;;;16.38;7.57;;;15.60;99.90;;;;;;5013615;28;20097;-68
2023/07/23 04:17:12;;;;;;;13.05;7.63;;;15.60;99.90;;;;;;5013660;28;20026;-68
2023/07/23 04:19:37;;;;;;;13.43;7.55;;;15.70;99.90;;;;;;5013648;28;20030;-68
2023/07/23 04:22:03;;;;;;;11.07;6.57;;;15.60;99.90;;;;;;5013593;28;20030;-69
2023/07/23 04:24:29;;;;;;;11.52;8.18;;;15.80;99.90;;;;;;5013624;28;20042;-68
2023/07/23 04:26:54;;;;;;;10.70;7.25;;;15.90;99.90;;;;;;5013585;28;20037;-68
2023/07/23 04:29:20;;;;;;;12.65;7.70;;;15.90;99.90;;;;;;5013264;28;20038;-68
2023/07/23 04:31:46;;;;;;;10.40;7.03;;;15.90;99.90;;;;;;5013233;28;20029;-68
2023/07/23 04:34:11;;;;;;;9.77;7.32;;;15.90;99.90;;;;;;5013517;28;20037;-68
2023/07/23 04:36:37;;;;;;;8.80;6.15;;;15.90;99.90;;;;;;5013354;28;20022;-68
2023/07/23 04:39:05;;;;;;;9.90;6.90;;;;;;;;;;5015407;28;20026;-68
2023/07/23 04:41:32;;;;;;;10.18;6.35;;;;;;;;;;5017350;28;20510;-68
2023/07/23 04:43:58;;;;;;;11.20;7.45;;;16.00;99.90;;;;;;5017207;28;20034;-68
2023/07/23 04:46:28;;;;;;;9.50;7.10;;;;;;;;;;5016855;28;20488;-68
2023/07/23 04:48:54;;;;;;;15.48;7.18;;;;;;;;;;5016837;28;20104;-68
2023/07/23 04:51:20;;;;;;;9.10;6.70;;;;;;;;;;5016925;28;20069;-68
2023/07/23 04:53:46;;;;;;;9.60;6.80;;;;;;;;;;5017145;28;20044;-68
2023/07/23 04:56:12;;;;;;;12.07;7.75;;;;;;;;;;5017099;28;20065;-68
2023/07/23 04:58:38;;;;;;;9.48;6.88;;;;;;;;;;5016924;28;20388;-68
2023/07/23 05:01:07;;;;;;;10.48;7.07;;;;;;;;;;5016942;28;20037;-68
2023/07/23 05:03:33;;;;;;;11.43;6.90;;;;;;;;;;5016839;28;20103;-68
2023/07/23 05:06:02;;;;;;;11.90;7.00;;;;;;;;;;5016852;28;20480;-68
2023/07/23 05:08:28;;;;;;;11.00;6.90;;;;;;;;;;5016785;28;20543;-68
2023/07/23 05:10:59;;;;;;;7.68;6.22;;;;;;;;;;5016251;28;20116;-68
2023/07/23 05:13:25;;;;;;;9.98;6.95;;;;;;;;;;5016746;28;20507;-68
2023/07/23 05:15:50;;;;;;;9.95;6.70;;;;;;;;;;5016344;28;20030;-68
2023/07/23 05:18:16;;;;;;;11.45;6.10;;;;;;;;;;5016808;28;20034;-68
2023/07/23 05:20:42;;;;;;;9.07;5.68;;;;;;;;;;5016650;28;20129;-68
2023/07/23 05:23:08;;;;;;;12.20;6.07;;;;;;;;;;5016457;28;20049;-68
2023/07/23 05:25:34;;;;;;;10.50;6.30;;;;;;;;;;5016305;28;20097;-68
2023/07/23 05:28:00;;;;;;;8.63;5.80;;;;;;;;;;5016542;28;20391;-69
2023/07/23 05:30:26;;;;;;;8.45;5.55;;;;;;;;;;5016267;28;20391;-69
2023/07/23 05:32:52;;;;;;;10.63;6.35;;;;;;;;;;5016397;28;20120;-69
2023/07/23 05:35:18;;;;;;;10.40;5.75;;;;;;;;;;5016438;28;20030;-68
2023/07/23 05:37:44;;;;;;;11.00;5.50;;;;;;;;;;5016388;28;20080;-68
2023/07/23 05:40:10;;;;;;;9.07;6.38;;;;;;;;;;5016202;28;20026;-69
2023/07/23 05:42:36;;;;;;;8.32;5.30;;;;;;;;;;5015711;28;20044;-69
2023/07/23 05:45:03;;;;;;;7.93;5.60;;;;;;;;;;5016124;28;20030;-69
2023/07/23 05:47:29;;;;;;;9.35;6.13;;;;;;;;;;5016156;28;20022;-69
2023/07/23 05:49:55;;;;;;;9.85;5.57;;;;;;;;;;5014654;28;20058;-69
2023/07/23 05:52:20;;;;;;;9.43;5.22;;;;;;;;;;5016102;28;20090;-68
2023/07/23 05:54:46;;;;;;;9.10;5.28;;;;;;;;;;5016097;28;20384;-68
2023/07/23 05:57:12;;;;;;;6.60;5.55;;;;;;;;;;5015933;28;20396;-69
2023/07/23 05:59:38;;;;;;;6.68;5.00;;;;;;;;;;5015955;28;20474;-69
2023/07/23 06:02:04;;;;;;;7.65;5.28;;;;;;;;;;5016030;28;20030;-68
2023/07/23 06:04:30;;;;;;;8.20;5.28;;;;;;;;;;5015628;28;20034;-69
2023/07/23 06:06:56;;;;;;;8.18;5.55;;;;;;;;;;5015740;28;20097;-69
2023/07/23 06:09:23;;;;;;;7.50;5.18;;;;;;;;;;5015753;28;20480;-69
2023/07/23 06:11:49;;;;;;;8.20;5.63;;;;;;;;;;5015450;28;20065;-69
2023/07/23 06:14:14;;;;;;;8.05;5.50;;;;;;;;;;5015790;28;20060;-69
2023/07/23 06:16:40;;;;;;;8.32;4.90;;;;;;;;;;5015530;28;20109;-69
2023/07/23 06:19:06;;;;;;;5.80;5.00;;;;;;;;;;5015470;28;20508;-68
2023/07/23 06:21:32;;;;;;;8.80;5.30;;;;;;;;;;5015499;28;20030;-68
2023/07/23 06:23:58;;;;;;;7.65;4.78;;;;;;;;;;5015232;28;20034;-69
2023/07/23 06:26:24;;;;;;;5.63;4.68;;;;;;;;;;5015464;28;20042;-69
2023/07/23 06:28:50;;;;;;;8.68;4.50;;;;;;;;;;5015259;28;20061;-70
2023/07/23 06:31:16;;;;;;;9.80;5.20;;;;;;;;;;5015091;28;20026;-69
2023/07/23 06:33:42;;;;;;;8.10;4.63;;;;;;;;;;5015075;28;20384;-68
2023/07/23 06:36:08;;;;;;;7.93;4.45;;;;;;;;;;5014769;28;20378;-69
2023/07/23 06:38:34;;;;;;;7.28;4.53;;;;;;;;;;5015107;28;20034;-69
2023/07/23 06:41:00;;;;;;;5.97;4.32;;;;;;;;;;5014694;28;20123;-69
2023/07/23 06:43:26;;;;;;;7.00;4.72;;;20.60;99.90;;;;;;5014532;28;20030;-69
2023/07/23 06:45:52;;;;;;;7.82;4.60;;;20.80;1.00;;;;;;5015027;28;20030;-69
2023/07/23 06:48:19;;;;;;;5.45;4.60;;;20.90;1.00;;;;;;5014766;28;20056;-69
2023/07/23 06:50:46;;;;;;;5.32;4.05;;;20.70;99.90;;;;;;5014941;28;20033;-69
2023/07/23 06:53:12;;;;;;;7.70;4.30;;;20.70;58.70;;;;;;5014760;28;20459;-69
2023/07/23 06:56:05;;;;;;;8.27;4.25;;;20.50;1.00;;;;;;5014408;28;20022;-69
2023/07/23 06:58:33;;;;;;;4.60;4.07;;;20.40;99.90;;;;;;5014466;28;20053;-69
2023/07/23 07:00:58;;;;;;;8.25;4.53;;;20.50;1.00;;;;;;5014769;28;20467;-69
2023/07/23 07:03:24;;;;;;;7.57;4.15;;;20.80;99.90;;;;;;5014766;28;20072;-69
2023/07/23 07:05:50;;;;;;;6.60;4.43;;;21.00;1.00;;;;;;5014453;28;20037;-69
2023/07/23 07:08:16;;;;;;;5.82;4.35;;;21.30;99.90;;;;;;5014742;28;20031;-69
2023/07/23 07:10:41;;;;;;;7.93;3.92;;;21.40;72.10;;;;;;5014440;28;20033;-69
2023/07/23 07:13:07;;;;;;;6.57;4.00;;;21.50;99.90;;;;;;5014556;28;20026;-70
2023/07/23 07:15:32;;;;;;;6.30;4.25;;;21.40;1.00;;;;;;5014536;28;20167;-69
2023/07/23 07:17:58;;;;;;;6.47;4.30;;;21.20;99.90;;;;;;5014605;28;20026;-69
2023/07/23 07:20:23;;;;;;;6.28;4.28;;;21.20;99.90;;;;;;5014534;28;20030;-69
2023/07/23 07:22:49;;;;;;;8.15;4.10;;;21.20;43.50;;;;;;5014422;28;20042;-69
2023/07/23 07:25:15;;;;;;;13.80;4.38;;;21.00;1.00;;;;;;5014525;28;20472;-69
2023/07/23 07:27:40;;;;;;;7.35;4.20;;;21.20;99.90;;;;;;5014268;28;20034;-70
2023/07/23 07:30:06;;;;;;;9.75;4.30;;;20.90;23.50;;;;;;5014232;28;20034;-69
2023/07/23 07:32:32;;;;;;;6.88;4.25;;;20.90;36.70;;;;;;5014248;28;20539;-69
2023/07/23 07:34:58;;;;;;;5.38;4.07;;;20.80;8.90;;;;;;5014222;28;20022;-69
2023/07/23 07:37:24;;;;;;;7.85;4.60;;;20.80;99.90;;;;;;5013981;28;20022;-69
2023/07/23 07:39:50;;;;;;;6.60;3.95;;;20.80;19.80;;;;;;5014148;28;20037;-69
2023/07/23 07:42:15;;;;;;;6.32;4.10;;;20.80;1.00;;;;;;5013916;28;20029;-69
2023/07/23 07:44:41;;;;;;;9.20;4.63;;;20.90;20.00;;;;;;5014074;28;20034;-69
2023/07/23 07:47:06;;;;;;;5.30;4.10;;;20.90;1.00;;;;;;5013796;28;20036;-69
2023/07/23 07:49:32;;;;;;;7.72;4.05;;;20.80;1.00;;;;;;5013593;28;20053;-69
2023/07/23 07:51:57;;;;;;;6.03;3.90;;;21.00;12.20;;;;;;5013912;28;20072;-69
2023/07/23 07:54:23;;;;;;;8.15;3.72;;;21.00;1.00;;;;;;5013801;28;20030;-69
2023/07/23 07:56:49;;;;;;;6.00;4.03;;;20.90;1.00;;;;;;5014142;28;20539;-69
2023/07/23 07:59:15;;;;;;;6.25;3.78;;;20.90;29.40;;;;;;5013922;28;20026;-69
2023/07/23 08:01:41;;;;;;;5.55;3.80;;;20.90;1.00;;;;;;5013360;28;20511;-69
2023/07/23 08:04:09;;;;;;;7.10;4.07;;;21.00;1.00;;;;;;5013835;28;20030;-69
2023/07/23 08:06:36;;;;;;;5.63;4.00;;;21.10;1.00;;;;;;5013726;28;20041;-69
2023/07/23 08:09:03;;;;;;;5.88;3.70;;;21.30;99.90;;;;;;5013795;28;20439;-69
2023/07/23 08:11:30;;;;;;;5.65;3.67;;;21.10;99.90;;;;;;5013338;28;20033;-69
2023/07/23 08:13:57;;;;;;;7.38;4.10;;;21.00;99.90;;;;;;5013295;28;20030;-69
2023/07/23 08:16:22;;;;;;;8.48;4.07;;;21.10;99.90;;;;;;5013650;28;20048;-69
2023/07/23 08:18:48;;;;;;;6.35;3.50;;;21.10;99.90;;;;;;5013847;28;20029;-69
2023/07/23 08:21:14;;;;;;;9.35;4.40;;;21.10;99.90;;;;;;5013586;28;20439;-69
2023/07/23 08:23:40;;;;;;;6.25;4.30;;;21.10;1.00;;;;;;5013580;28;20037;-69
2023/07/23 08:26:07;;;;;;;5.97;4.28;;;21.20;1.00;;;;;;5013552;28;20387;-69
2023/07/23 08:28:38;;;;;;;5.28;4.05;;;21.40;1.00;;;;;;5013463;28;20105;-69
2023/07/23 08:31:04;;;;;;;5.60;3.88;;;21.50;99.90;;;;;;5013410;28;20498;-69
2023/07/23 08:33:31;;;;;;;9.57;4.50;;;21.50;99.90;;;;;;5013527;28;20022;-69
2023/07/23 08:35:58;;;;;;;5.90;4.13;;;21.30;99.90;;;;;;5013354;28;20022;-69
2023/07/23 08:38:25;;;;;;;7.78;4.25;;;20.90;1.00;;;;;;5013182;28;20037;-69
2023/07/23 08:41:00;;;;;;;8.10;3.78;;;20.70;1.00;;;;;;5013478;28;20045;-69
2023/07/23 08:43:58;;;;;;;4.85;3.80;;;20.50;99.90;;;;;;5013293;28;20037;-69
2023/07/23 08:46:25;;;;;;;7.90;3.85;;;20.30;99.90;;;;;;5013370;28;20435;-69
2023/07/23 08:49:06;;;;;;;7.25;3.45;;;20.10;1.00;;;;;;5013267;28;20042;-68
2023/07/23 08:51:39;;;;;;;8.32;4.07;;;20.10;6.30;;;;;;5013142;28;20168;-68
2023/07/23 08:54:06;;;;;;;5.53;3.78;;;19.90;99.90;;;;;;5013229;28;20030;-68
2023/07/23 08:56:33;;;;;;;6.78;3.97;;;19.90;1.00;;;;;;5012857;28;20033;-68
2023/07/23 08:59:01;;;;;;;4.30;3.63;;;19.80;1.00;;;;;;5013368;28;20037;-68
2023/07/23 09:01:31;;;;;;;5.57;3.80;;;19.80;1.00;;;;;;5013154;28;20026;-69
2023/07/23 09:03:56;;;;;;;6.80;3.97;;;19.80;99.90;;;;;;5013418;28;20487;-69
2023/07/23 09:06:22;;;;;;;5.25;3.70;;;19.80;99.90;;;;;;5013056;28;20025;-69
2023/07/23 09:08:51;;;;;;;7.63;4.50;;;19.80;1.00;;;;;;5013193;28;20116;-68
2023/07/23 09:11:17;;;;;;;5.43;3.67;;;19.90;1.00;;;;;;5012969;28;20026;-68
2023/07/23 09:13:43;;;;;;;4.28;3.85;;;19.80;99.90;;;;;;5013189;28;20029;-68
2023/07/23 09:16:09;;;;;;;5.90;4.05;;;19.70;99.90;;;;;;5013115;28;20024;-69
2023/07/23 09:18:41;;;;;;;5.82;3.33;;;19.70;1.00;;;;;;5013197;28;20108;-68
2023/07/23 09:21:09;;;;;;;4.53;3.60;;;19.70;1.00;;;;;;5013166;28;20472;-69
2023/07/23 09:23:34;;;;;;;10.05;3.75;;;19.60;59.40;;;;;;5013118;28;20037;-69
2023/07/23 09:26:00;;;;;;;6.43;3.20;;;19.60;99.90;;;;;;5014913;28;20037;-69
2023/07/23 09:28:26;;;;;;;6.63;3.50;;;19.60;1.00;;;;;;5016550;28;20387;-69
2023/07/23 09:30:55;;;;;;;6.40;3.90;;;19.70;1.00;;;;;;5016327;28;20490;-69
2023/07/23 09:33:20;;;;;;;5.95;3.60;;;19.70;1.00;;;;;;5016648;28;20144;-69
2023/07/23 09:35:46;;;;;;;7.63;3.58;;;19.80;55.40;;;;;;5016384;28;20037;-69
2023/07/23 09:38:14;;;;;;;3.47;3.05;;;19.60;99.90;;;;;;5015965;28;20018;-68
2023/07/23 09:40:41;;;;;;;6.60;3.67;;;19.50;1.00;;;;;;5015973;28;20034;-69
2023/07/23 09:43:07;;;;;;;7.97;3.33;;;19.50;39.00;;;;;;5015811;28;20037;-69
2023/07/23 09:45:36;;;;;;;7.65;3.83;;;19.50;99.90;;;;;;5015722;28;20548;-69
2023/07/23 09:48:02;;;;;;;6.30;3.13;;;19.50;99.90;;;;;;5016128;28;20068;-69
2023/07/23 09:50:29;;;;;;;6.45;3.30;;;19.50;1.00;;;;;;5015893;28;20058;-69
2023/07/23 09:52:55;;;;;;;8.73;3.42;;;19.50;1.00;;;;;;5016110;28;20065;-69
2023/07/23 09:55:21;;;;;;;4.13;3.13;;;19.40;99.90;;;;;;5015974;28;20032;-69
2023/07/23 09:57:49;;;;;;;4.50;3.17;;;19.20;99.90;;;;;;5016088;28;20109;-69
2023/07/23 10:00:15;;;;;;;4.18;3.40;;;19.00;1.00;;;;;;5015481;28;20026;-70
2023/07/23 10:02:42;;;;;;;5.20;3.58;;;18.90;1.00;;;;;;5015832;28;20044;-69
2023/07/23 10:05:10;;;;;;;4.03;3.15;;;18.80;1.00;;;;;;5015756;28;20388;-70
2023/07/23 10:07:39;;;;;;;5.25;3.33;;;18.90;99.90;;;;;;5015613;28;20483;-69
2023/07/23 10:10:06;;;;;;;7.18;3.13;;;19.10;46.40;;;;;;5015192;28;20021;-70
2023/07/23 10:12:31;;;;;;;4.15;3.20;;;19.10;1.00;;;;;;5015768;28;20499;-70
2023/07/23 10:14:57;;;;;;;6.55;3.35;;;19.00;1.00;;;;;;5015672;28;20022;-69
2023/07/23 10:17:24;;;;;;;6.50;3.30;;;19.20;99.90;;;;;;5015598;28;20062;-70
2023/07/23 10:19:52;;;;;;;4.88;3.47;;;19.20;1.00;;;;;;5015715;28;20168;-69
2023/07/23 10:22:18;;;;;;;4.38;3.58;;;19.10;1.00;;;;;;5015599;28;20030;-70
2023/07/23 10:24:49;;;;;;;5.30;3.20;;;19.30;99.90;;;;;;5015031;28;20025;-70
2023/07/23 10:27:16;;;;;;;5.57;3.65;;;19.00;99.90;;;;;;5015094;28;20032;-69
2023/07/23 10:30:01;;;;;;;4.22;3.40;;;18.90;1.00;;;;;;5015268;28;20100;-70
2023/07/23 10:32:27;;;;;;;6.47;3.08;;;18.80;95.90;;;;;;5015343;28;20030;-69
2023/07/23 10:34:54;;;;;;;4.95;2.92;;;18.70;99.90;;;;;;5014915;28;20049;-69
2023/07/23 10:37:21;;;;;;;4.38;3.00;;;18.60;99.90;;;;;;5015038;28;20033;-69
2023/07/23 10:39:49;;;;;;;6.15;2.90;;;18.60;99.90;;;;;;5015449;28;20486;-69
2023/07/23 10:42:35;;;;;;;4.97;3.05;;;18.70;99.90;;;;;;5015126;28;20026;-69
2023/07/23 10:48:00;;;;;;;6.15;3.20;;;18.70;99.90;;;;;;5070591;28;20372;-69
2023/07/23 10:50:29;;;;;;;4.43;2.95;;;18.70;99.90;;;;;;5070766;28;20483;-69
2023/07/23 10:53:03;;;;;;;3.38;3.08;;;18.70;99.90;;;;;;5070720;28;20551;-70
2023/07/23 10:55:47;;;;;;;4.07;3.20;;;18.70;99.90;;;;;;5070650;28;20032;-69
2023/07/23 10:58:15;;;;;;;4.10;2.90;;;18.80;99.90;;;;;;5070486;28;20021;-70
2023/07/23 11:00:45;;;;;;;5.20;3.75;;;18.70;1.00;;;;;;5070603;28;20027;-69
2023/07/23 11:03:14;;;;;;;4.13;3.10;;;18.70;1.00;;;;;;5070041;28;20021;-69
2023/07/23 11:05:42;;;;;;;5.75;3.25;;;18.50;1.00;;;;;;5070326;28;20043;-70
2023/07/23 11:08:23;;;;;;;6.53;3.72;;;18.60;1.00;;;;;;5070316;28;20026;-69
2023/07/23 11:11:09;;;;;;;4.90;3.38;;;18.90;1.00;;;;;;5069994;28;20052;-70
2023/07/23 11:13:35;;;;;;;5.15;3.67;;;19.00;99.90;;;;;;5070163;28;20024;-70
2023/07/23 11:16:02;;;;;;;4.38;3.63;;;19.10;99.90;;;;;;5070293;28;20510;-70
2023/07/23 11:18:30;;;;;;;4.63;3.40;;;19.20;1.00;;;;;;5070299;28;20021;-70
2023/07/23 11:20:57;;;;;;;5.32;3.50;;;19.30;99.90;;;;;;5070091;28;20032;-69
2023/07/23 11:23:25;;;;;;;6.45;3.30;;;19.00;99.90;;;;;;5070183;28;20024;-68
2023/07/23 11:25:51;;;;;;;5.18;3.63;;;19.00;1.00;;;;;;5070137;28;20482;-68
2023/07/23 11:28:19;;;;;;;4.85;3.10;;;19.00;1.00;;;;;;5069964;28;20391;-68
2023/07/23 11:30:46;;;;;;;4.63;3.20;;;19.20;1.00;;;;;;5069897;28;20494;-68
2023/07/23 11:33:12;;;;;;;5.15;3.75;;;19.20;99.90;;;;;;5069409;28;20031;-68
2023/07/23 11:35:38;;;;;;;4.47;3.22;;;19.20;1.00;;;;;;5069944;28;20112;-68
2023/07/23 11:38:05;;;;;;;6.25;3.33;;;19.60;1.00;;;;;;5069738;28;20024;-68
2023/07/23 11:40:31;;;;;;;7.22;3.50;;;19.30;99.90;;;;;;5069753;28;20020;-68
2023/07/23 11:43:02;;;;;;;4.57;3.05;;;19.30;1.00;;;;;;5069541;28;20486;-67
2023/07/23 11:45:27;;;;;;;5.53;3.40;;;19.50;99.90;;;;;;5069523;28;20035;-67
2023/07/23 11:47:54;;;;;;;3.67;3.13;;;19.30;99.90;;;;;;5069015;28;20402;-69
2023/07/23 11:50:21;;;;;;;7.43;3.00;;;19.50;1.00;;;;;;5069681;28;20036;-68
2023/07/23 11:52:48;;;;;;;3.08;2.70;;;19.60;1.00;;;;;;5069462;28;20024;-68
2023/07/23 11:55:22;;;;;;;6.07;2.95;;;19.70;99.90;;;;;;5069186;28;20108;-68
2023/07/23 11:57:57;;;;;;;3.42;2.97;;;19.70;99.90;;;;;;5064812;28;20496;-68
2023/07/23 12:00:27;;;;;;;3.63;3.10;;;19.80;99.90;;;;;;5056235;28;20029;-68
2023/07/23 12:02:53;;;;;;;3.20;2.70;;;19.90;99.90;;;;;;5055979;28;20025;-68
2023/07/23 12:05:19;;;;;;;4.55;2.80;;;19.80;99.90;;;;;;5056162;28;20074;-68
2023/07/23 12:07:45;;;;;;;3.30;2.80;;;19.80;99.90;;;;;;5055633;28;20391;-68
2023/07/23 12:10:15;;;;;;;3.22;2.72;;;19.80;1.00;;;;;;5055485;28;20082;-69
2023/07/23 12:12:45;;;;;;;2.42;2.22;;;19.70;1.00;;;;;;5055845;28;20079;-68
2023/07/23 12:15:15;;;;;;;4.03;2.40;;;19.60;1.00;;;;;;5055788;28;20506;-68
2023/07/23 12:17:43;;;;;;;2.00;1.85;;;19.70;1.00;;;;;;5055672;28;20028;-68
2023/07/23 12:20:10;;;;;;;2.70;2.25;;;;;;;;;;5055720;28;20029;-68
2023/07/23 12:22:56;;;;;;;4.28;2.17;;;19.40;1.00;;;;;;5055550;28;20064;-67
2023/07/23 12:25:24;;;;;;;2.60;2.08;;;19.10;1.00;;;;;;5055495;28;20120;-68
2023/07/23 12:27:50;;;;;;;3.92;2.00;;;19.10;1.00;;;;;;5055428;28;20433;-69
2023/07/23 12:30:17;;;;;;;2.72;2.15;;;19.10;1.00;;;;;;5055149;28;20029;-68
2023/07/23 12:32:44;;;;;;;2.25;1.90;;;19.10;1.00;;;;;;5055483;28;20027;-68
2023/07/23 12:35:10;;;;;;;2.00;1.80;;;19.20;1.00;;;;;;5055492;28;20106;-68
2023/07/23 12:37:36;;;;;;;2.58;1.85;;;19.10;16.90;;;;;;5055459;28;20029;-67
2023/07/23 12:40:04;;;;;;;2.15;1.95;;;18.90;11.70;;;;;;5055029;28;20091;-68
2023/07/23 12:42:33;;;;;;;3.63;2.15;;;18.90;10.10;;;;;;5055675;28;20032;-68
2023/07/23 12:44:59;;;;;;;3.20;2.08;;;19.00;12.70;;;;;;5055361;28;20513;-68
2023/07/23 12:47:26;;;;;;;2.20;2.00;;;18.90;32.90;;;;;;5054947;28;20049;-67
2023/07/23 12:49:54;;;;;;;2.58;2.38;;;18.80;34.90;;;;;;5055264;28;20027;-67
2023/07/23 12:52:21;;;;;;;2.83;1.92;;;18.80;50.70;;;;;;5054734;28;20017;-68
2023/07/23 12:54:46;;;;;;;2.78;2.25;;;18.80;54.90;;;;;;5055141;28;20498;-67
2023/07/23 12:57:12;;;;;;;2.85;2.00;;;18.70;38.00;;;;;;5055051;28;20036;-69
2023/07/23 12:59:38;;;;;;;2.88;2.13;;;18.80;29.10;;;;;;5055102;28;20029;-68
2023/07/23 13:02:05;;;;;;;2.83;2.28;;;18.90;27.50;;;;;;5054984;28;20052;-68